Sheffield — A8SZ2 — position and weather

sailwx.info

Track history (hours):
 
Tides and Currents Weather Stations Pressure Air Temp Water Temp Dewpoint Dewpoint Depression Visibility Wind Speed Wind Dir Waves Ship Positions

Sheffield

Last reported at 2017-Nov-20 00:22 UTC. Time now 2017-Nov-24 07:30 UTC.
Position N 01°17' E 103°57'.

Length 188 m; draft 8.9 m.

Type: Cargo ship. MMSI: 636017691.

Date/timePositionNaut miles runAvg speedWind from/ knotsBaromVisibWave heightAir tempDewpointWater temp
2017-Nov-20 00:22N 01°17' E 103°57'0 0.2
2017-Nov-19 23:52N 01°17' E 103°57'0 0.2
2017-Nov-19 23:10N 01°17' E 103°57'0 0.3
2017-Nov-19 22:58N 01°17' E 103°57'0 0.0
2017-Nov-19 22:30N 01°17' E 103°57'1 3.0
2017-Nov-19 22:00N 01°16' E 103°56'1 2.1
2017-Nov-19 21:30N 01°15' E 103°57'2 3.1
2017-Nov-19 21:00N 01°14' E 103°56'4 7.4
2017-Nov-19 20:30N 01°12' E 103°53'4 9.1
2017-Nov-19 20:01N 01°10' E 103°49'4 8.7
2017-Nov-19 19:30N 01°07' E 103°45'5 9.7
2017-Nov-19 19:00N 01°04' E 103°42'4 8.3
2017-Nov-19 18:30N 01°03' E 103°38'510.1
2017-Nov-19 18:00N 01°06' E 103°34'611.2
2017-Nov-19 17:30N 01°09' E 103°29'1114.8
2017-Nov-19 16:44N 01°16' E 103°20'31412.5
2017-Nov-18 15:36N 05°19' E 100°01'213.8
2017-Nov-18 15:26N 05°21' E 100°01'19 9.1
2017-Nov-18 13:23N 05°34' E 100°16'4 9.8
2017-Nov-18 12:59N 05°31' E 100°19'4 8.5
2017-Nov-18 12:30N 05°28' E 100°21'4 8.4
2017-Nov-18 12:00N 05°23' E 100°21'0 0.3
2017-Nov-18 11:29N 05°23' E 100°21'0 0.0
2017-Nov-18 10:59N 05°23' E 100°21'0 0.0
2017-Nov-18 10:29N 05°23' E 100°21'0 0.0
2017-Nov-18 09:52N 05°23' E 100°21'0 0.2
2017-Nov-18 09:23N 05°23' E 100°21'0 0.2
2017-Nov-18 08:53N 05°23' E 100°21'0 0.1
2017-Nov-18 08:17N 05°23' E 100°21'0 0.0
2017-Nov-18 07:59N 05°23' E 100°21'0 0.0
2017-Nov-18 07:29N 05°23' E 100°21'0 0.0
2017-Nov-18 06:59N 05°23' E 100°21'0 0.0
2017-Nov-18 06:28N 05°23' E 100°21'0 0.0
2017-Nov-18 05:59N 05°23' E 100°21'0 0.0
2017-Nov-18 05:29N 05°23' E 100°21'0 0.0
2017-Nov-18 04:58N 05°23' E 100°21'0 0.0
2017-Nov-18 04:29N 05°23' E 100°21'0 0.0
2017-Nov-18 03:58N 05°23' E 100°21'0 0.0
2017-Nov-18 03:28N 05°23' E 100°21'0 0.0
2017-Nov-18 02:58N 05°23' E 100°21'0 0.0
2017-Nov-18 02:28N 05°23' E 100°21'0 0.2
2017-Nov-18 01:58N 05°23' E 100°21'0 0.2
2017-Nov-18 01:28N 05°23' E 100°21'0 0.1
2017-Nov-18 00:58N 05°23' E 100°21'0 0.0
2017-Nov-18 00:28N 05°23' E 100°21'0 0.0
2017-Nov-17 23:58N 05°23' E 100°21'0 0.0
2017-Nov-17 23:28N 05°23' E 100°21'0 0.0
2017-Nov-17 22:58N 05°23' E 100°21'0 0.0
2017-Nov-17 22:28N 05°23' E 100°21'0 0.0
2017-Nov-17 21:58N 05°23' E 100°21'0 0.0
2017-Nov-17 21:28N 05°23' E 100°21'0 0.1
2017-Nov-17 20:58N 05°23' E 100°21'0 0.3
2017-Nov-17 20:28N 05°23' E 100°21'0 0.1
2017-Nov-17 19:58N 05°23' E 100°21'0 0.0
2017-Nov-17 19:22N 05°23' E 100°21'0 0.0
2017-Nov-17 18:58N 05°23' E 100°21'0 0.0
2017-Nov-17 18:28N 05°23' E 100°21'0 0.0
2017-Nov-17 17:58N 05°23' E 100°21'0 0.0
2017-Nov-17 17:28N 05°23' E 100°21'0 0.0
2017-Nov-17 16:58N 05°23' E 100°21'0 0.0
2017-Nov-17 16:22N 05°23' E 100°21'0 0.0
2017-Nov-17 15:46N 05°23' E 100°21'0 0.0
2017-Nov-17 15:28N 05°23' E 100°21'0 0.0
2017-Nov-17 14:58N 05°23' E 100°21'0 0.0
2017-Nov-17 14:28N 05°23' E 100°21'0 0.1
2017-Nov-17 13:58N 05°23' E 100°21'0 0.2
2017-Nov-17 13:28N 05°23' E 100°21'0 0.2
2017-Nov-17 12:58N 05°23' E 100°21'0 0.0
2017-Nov-17 12:28N 05°23' E 100°21'0 0.0
2017-Nov-17 11:58N 05°23' E 100°21'0 0.0
2017-Nov-17 11:28N 05°23' E 100°21'0 0.0
2017-Nov-17 10:58N 05°23' E 100°21'0 0.1
2017-Nov-17 10:22N 05°23' E 100°21'0 0.0
2017-Nov-17 09:58N 05°23' E 100°21'0 0.0
2017-Nov-17 09:28N 05°23' E 100°21'0 0.0
2017-Nov-17 08:58N 05°23' E 100°21'0 0.1
2017-Nov-17 08:28N 05°23' E 100°21'0 0.1
2017-Nov-17 07:52N 05°23' E 100°21'0 0.4
2017-Nov-17 07:28N 05°23' E 100°21'0 0.2
2017-Nov-17 06:58N 05°23' E 100°21'0 0.1
2017-Nov-17 06:28N 05°23' E 100°21'0 0.0
2017-Nov-17 05:58N 05°23' E 100°21'0 0.0
2017-Nov-17 05:22N 05°23' E 100°21'0 0.0
2017-Nov-17 04:58N 05°23' E 100°21'0 0.0
2017-Nov-17 04:28N 05°23' E 100°21'0 0.0
2017-Nov-17 03:58N 05°23' E 100°21'0 0.0
2017-Nov-17 03:28N 05°23' E 100°21'0 0.0
2017-Nov-17 02:58N 05°23' E 100°21'0 0.0
2017-Nov-17 02:28N 05°23' E 100°21'0 0.1
2017-Nov-17 01:58N 05°23' E 100°21'0 0.2
2017-Nov-17 01:28N 05°23' E 100°21'0 0.1
2017-Nov-17 00:58N 05°23' E 100°21'0 0.0
2017-Nov-17 00:16N 05°23' E 100°21'0 0.0
2017-Nov-16 23:52N 05°23' E 100°21'0 0.0
2017-Nov-16 23:28N 05°23' E 100°21'0 0.0
2017-Nov-16 22:52N 05°23' E 100°21'0 0.0
2017-Nov-16 22:28N 05°23' E 100°21'0 0.0
2017-Nov-16 21:52N 05°23' E 100°21'0 0.0
2017-Nov-16 21:28N 05°23' E 100°21'0 0.1
2017-Nov-16 20:58N 05°23' E 100°21'0 0.0
2017-Nov-16 20:28N 05°23' E 100°21'0 0.3
2017-Nov-16 19:58N 05°23' E 100°21'0 0.2
2017-Nov-16 19:28N 05°23' E 100°21'0 0.0
2017-Nov-16 18:58N 05°23' E 100°21'0 0.1
2017-Nov-16 18:28N 05°23' E 100°21'0 0.0
2017-Nov-16 17:58N 05°23' E 100°21'0 0.1
2017-Nov-16 17:28N 05°23' E 100°21'0 0.0
2017-Nov-16 16:58N 05°23' E 100°21'0 0.0
2017-Nov-16 16:28N 05°23' E 100°21'0 0.0
2017-Nov-16 15:52N 05°23' E 100°21'0 0.0
2017-Nov-16 15:28N 05°23' E 100°21'0 0.0
2017-Nov-16 14:58N 05°23' E 100°21'0 0.0
2017-Nov-16 14:22N 05°23' E 100°21'0 0.0
2017-Nov-16 13:58N 05°23' E 100°21'0 0.1
2017-Nov-16 13:28N 05°23' E 100°21'0 0.2
2017-Nov-16 12:58N 05°23' E 100°21'0 0.1
2017-Nov-16 12:28N 05°23' E 100°21'0 0.1
2017-Nov-16 11:58N 05°23' E 100°21'0 0.0
2017-Nov-16 11:22N 05°23' E 100°21'0 0.0
2017-Nov-16 10:58N 05°23' E 100°21'0 0.0
2017-Nov-16 10:28N 05°23' E 100°21'0 0.0
2017-Nov-16 09:58N 05°23' E 100°21'0 0.0
2017-Nov-16 09:28N 05°23' E 100°21'0 0.0
2017-Nov-16 08:58N 05°23' E 100°21'0 0.0
2017-Nov-16 08:28N 05°23' E 100°21'0 0.3
2017-Nov-16 07:58N 05°23' E 100°21'0 0.2
2017-Nov-16 07:28N 05°23' E 100°21'0 0.0
2017-Nov-16 06:58N 05°23' E 100°21'0 0.1
2017-Nov-16 06:28N 05°23' E 100°21'0 0.0
2017-Nov-16 05:58N 05°23' E 100°21'0 0.0
2017-Nov-16 05:28N 05°23' E 100°21'0 0.0
2017-Nov-16 04:58N 05°23' E 100°21'0 0.0
2017-Nov-16 04:28N 05°23' E 100°21'0 0.1
2017-Nov-16 03:58N 05°23' E 100°21'0 0.0
2017-Nov-16 03:28N 05°23' E 100°21'0 0.0
2017-Nov-16 02:58N 05°23' E 100°21'0 0.0
2017-Nov-16 01:58N 05°23' E 100°21'0 0.0
2017-Nov-16 01:28N 05°23' E 100°21'0 0.2
2017-Nov-16 00:58N 05°23' E 100°21'0 0.1
2017-Nov-16 00:22N 05°23' E 100°21'0 0.2
2017-Nov-15 23:58N 05°23' E 100°21'0 0.0
2017-Nov-15 23:28N 05°23' E 100°21'0 0.0
2017-Nov-15 22:58N 05°23' E 100°21'0 0.0
2017-Nov-15 22:28N 05°23' E 100°21'0 0.0
2017-Nov-15 21:58N 05°23' E 100°21'0 0.1
2017-Nov-15 21:28N 05°23' E 100°21'0 0.0
2017-Nov-15 20:58N 05°23' E 100°21'0 0.0
2017-Nov-15 20:28N 05°23' E 100°21'0 0.1
2017-Nov-15 19:58N 05°23' E 100°21'0 0.2
2017-Nov-15 19:28N 05°23' E 100°21'0 0.2
2017-Nov-15 18:58N 05°23' E 100°21'0 0.1
2017-Nov-15 18:28N 05°23' E 100°21'0 0.0
2017-Nov-15 17:58N 05°23' E 100°21'0 0.0
2017-Nov-15 17:28N 05°23' E 100°21'0 0.0
2017-Nov-15 16:52N 05°23' E 100°21'0 0.0
2017-Nov-15 16:28N 05°23' E 100°21'0 0.1
2017-Nov-15 15:52N 05°23' E 100°21'0 0.0
2017-Nov-15 15:28N 05°23' E 100°21'0 0.1
2017-Nov-15 14:58N 05°23' E 100°21'0 0.0
2017-Nov-15 14:28N 05°23' E 100°21'0 0.0
2017-Nov-15 13:58N 05°23' E 100°21'0 0.0
2017-Nov-15 13:28N 05°23' E 100°21'0 0.1
2017-Nov-15 12:58N 05°23' E 100°21'0 0.1
2017-Nov-15 12:16N 05°23' E 100°21'0 0.3
2017-Nov-15 11:58N 05°23' E 100°21'0 0.0
2017-Nov-15 11:28N 05°23' E 100°21'0 0.0
2017-Nov-15 10:58N 05°23' E 100°21'0 0.0
2017-Nov-15 10:28N 05°23' E 100°21'0 0.1
2017-Nov-15 09:58N 05°23' E 100°21'0 0.0
2017-Nov-15 09:10N 05°23' E 100°21'0 0.0
2017-Nov-15 08:58N 05°23' E 100°21'0 0.0
2017-Nov-15 08:28N 05°23' E 100°21'0 0.0
2017-Nov-15 07:58N 05°23' E 100°21'0 0.4
2017-Nov-15 07:28N 05°23' E 100°21'0 0.0
2017-Nov-15 06:58N 05°23' E 100°21'0 0.1
2017-Nov-15 06:22N 05°23' E 100°21'0 0.1
2017-Nov-15 05:52N 05°23' E 100°21'0 0.1
2017-Nov-15 05:28N 05°23' E 100°21'0 0.0
2017-Nov-15 04:58N 05°23' E 100°21'0 0.0
2017-Nov-15 04:28N 05°23' E 100°21'0 0.0
2017-Nov-15 03:58N 05°23' E 100°21'0 0.0
2017-Nov-15 03:28N 05°23' E 100°21'0 0.0
2017-Nov-15 02:58N 05°23' E 100°21'0 0.1
2017-Nov-15 02:22N 05°23' E 100°21'0 0.0
2017-Nov-15 01:58N 05°23' E 100°21'0 0.0
2017-Nov-15 01:28N 05°23' E 100°21'0 0.0
2017-Nov-15 00:58N 05°23' E 100°21'0 0.1
2017-Nov-15 00:28N 05°23' E 100°21'0 0.2
2017-Nov-14 23:58N 05°23' E 100°21'0 0.1
2017-Nov-14 23:28N 05°23' E 100°21'0 0.0
2017-Nov-14 22:58N 05°23' E 100°21'0 0.0
2017-Nov-14 22:28N 05°23' E 100°21'0 0.0
2017-Nov-14 21:58N 05°23' E 100°21'0 0.0
2017-Nov-14 21:28N 05°23' E 100°21'0 0.1
2017-Nov-14 20:58N 05°23' E 100°21'0 0.1
2017-Nov-14 20:28N 05°23' E 100°21'0 0.0
2017-Nov-14 19:58N 05°23' E 100°21'0 0.2
2017-Nov-14 19:22N 05°23' E 100°21'0 0.2
2017-Nov-14 18:58N 05°23' E 100°21'0 0.1
2017-Nov-14 18:28N 05°23' E 100°21'0 0.0
2017-Nov-14 17:58N 05°23' E 100°21'0 0.0
2017-Nov-14 17:28N 05°23' E 100°21'0 0.0
2017-Nov-14 16:58N 05°23' E 100°21'0 0.1
2017-Nov-14 16:28N 05°23' E 100°21'0 0.1
2017-Nov-14 15:58N 05°23' E 100°21'0 0.0
2017-Nov-14 15:28N 05°23' E 100°21'0 0.0
2017-Nov-14 14:58N 05°23' E 100°21'0 0.0
2017-Nov-14 14:28N 05°23' E 100°21'0 0.0
2017-Nov-14 13:58N 05°23' E 100°21'0 0.0
2017-Nov-14 13:28N 05°23' E 100°21'0 0.0
2017-Nov-14 12:58N 05°23' E 100°21'0 0.2
2017-Nov-14 12:28N 05°23' E 100°21'0 0.1
2017-Nov-14 11:58N 05°23' E 100°21'0 0.1
2017-Nov-14 11:28N 05°23' E 100°21'0 0.0
2017-Nov-14 10:58N 05°23' E 100°21'0 0.0
2017-Nov-14 10:22N 05°23' E 100°21'0 0.0
2017-Nov-14 09:58N 05°23' E 100°21'0 0.0
2017-Nov-14 09:28N 05°23' E 100°21'0 0.0
2017-Nov-14 08:58N 05°23' E 100°21'0 0.0
2017-Nov-14 08:28N 05°23' E 100°21'0 0.0
2017-Nov-14 07:58N 05°23' E 100°21'0 0.0
2017-Nov-14 07:28N 05°23' E 100°21'0 0.0
2017-Nov-14 06:58N 05°23' E 100°21'0 0.0
2017-Nov-14 06:28N 05°23' E 100°21'0 0.1
2017-Nov-14 05:58N 05°23' E 100°21'0 0.3
2017-Nov-14 05:22N 05°23' E 100°21'0 0.0
2017-Nov-14 04:58N 05°23' E 100°21'0 0.0
2017-Nov-14 04:28N 05°23' E 100°21'0 0.0
2017-Nov-14 03:58N 05°23' E 100°21'0 0.1
2017-Nov-14 03:28N 05°23' E 100°21'0 0.0
2017-Nov-14 02:58N 05°23' E 100°21'0 0.1
2017-Nov-14 02:28N 05°23' E 100°21'0 0.1
2017-Nov-14 01:58N 05°23' E 100°21'0 0.0
2017-Nov-14 01:28N 05°23' E 100°21'0 0.0
2017-Nov-14 00:58N 05°23' E 100°21'0 0.1
2017-Nov-14 00:22N 05°23' E 100°21'0 0.3
2017-Nov-13 23:58N 05°23' E 100°21'0 0.2
2017-Nov-13 23:28N 05°23' E 100°21'0 0.0
2017-Nov-13 22:58N 05°23' E 100°21'0 0.0
2017-Nov-13 22:28N 05°23' E 100°21'0 0.0
2017-Nov-13 21:58N 05°23' E 100°21'0 0.0
2017-Nov-13 01:56N 05°24' E 100°21'0 0.0
2017-Nov-13 01:26N 05°24' E 100°21'0 0.0
2017-Nov-13 00:56N 05°24' E 100°21'0 0.1
2017-Nov-13 00:26N 05°24' E 100°21'0 0.2
2017-Nov-12 23:50N 05°24' E 100°21'0 0.0
2017-Nov-12 23:26N 05°24' E 100°21'0 0.1
2017-Nov-12 22:56N 05°24' E 100°21'0 0.0
2017-Nov-12 22:26N 05°24' E 100°21'0 0.0
2017-Nov-12 21:56N 05°24' E 100°21'0 0.1
2017-Nov-12 21:26N 05°24' E 100°21'0 0.0
2017-Nov-12 20:56N 05°24' E 100°21'0 0.0
2017-Nov-12 20:26N 05°24' E 100°21'0 0.1
2017-Nov-12 19:56N 05°24' E 100°21'0 0.0
2017-Nov-12 19:26N 05°24' E 100°21'0 0.1
2017-Nov-12 18:56N 05°24' E 100°21'0 0.1
2017-Nov-12 18:26N 05°24' E 100°21'0 0.1
2017-Nov-12 17:56N 05°24' E 100°21'0 0.1
2017-Nov-12 17:26N 05°24' E 100°21'0 0.2
2017-Nov-12 16:56N 05°24' E 100°21'0 0.2
2017-Nov-12 16:26N 05°24' E 100°21'0 0.0
2017-Nov-12 15:56N 05°24' E 100°21'0 0.0
2017-Nov-12 15:20N 05°24' E 100°21'0 0.0
2017-Nov-12 14:56N 05°24' E 100°21'0 0.0
2017-Nov-12 14:26N 05°24' E 100°21'0 0.0
2017-Nov-12 13:56N 05°24' E 100°21'0 0.0
2017-Nov-12 13:26N 05°24' E 100°21'0 0.0
2017-Nov-12 12:56N 05°24' E 100°21'0 0.0
2017-Nov-12 12:26N 05°24' E 100°21'0 0.0
2017-Nov-12 11:56N 05°24' E 100°21'0 0.0
2017-Nov-12 11:20N 05°24' E 100°21'0 0.0
2017-Nov-12 10:50N 05°24' E 100°21'0 0.1
2017-Nov-12 10:20N 05°24' E 100°21'0 0.1
2017-Nov-12 09:56N 05°24' E 100°21'0 0.3
2017-Nov-12 09:26N 05°24' E 100°21'0 0.1
2017-Nov-12 08:50N 05°24' E 100°21'0 0.1
2017-Nov-12 08:14N 05°24' E 100°21'0 0.0
2017-Nov-12 07:56N 05°24' E 100°21'0 0.0
2017-Nov-12 07:26N 05°24' E 100°21'0 0.0
2017-Nov-12 06:56N 05°24' E 100°21'0 0.0
2017-Nov-12 06:26N 05°24' E 100°21'0 0.0
2017-Nov-12 05:56N 05°24' E 100°21'0 0.3
2017-Nov-12 05:20N 05°24' E 100°21'0 0.2
2017-Nov-12 04:56N 05°24' E 100°21'0 0.1
2017-Nov-12 04:26N 05°24' E 100°21'0 0.0
2017-Nov-12 03:56N 05°24' E 100°21'0 0.0
2017-Nov-12 03:26N 05°24' E 100°21'0 0.0
2017-Nov-12 02:38N 05°24' E 100°21'0 0.0
2017-Nov-12 02:26N 05°24' E 100°21'0 0.0
2017-Nov-12 01:56N 05°24' E 100°21'0 0.0
2017-Nov-12 01:20N 05°24' E 100°21'0 0.0
2017-Nov-12 00:56N 05°24' E 100°21'0 0.0
2017-Nov-12 00:26N 05°24' E 100°21'0 0.0
2017-Nov-11 23:56N 05°24' E 100°21'0 0.0
2017-Nov-11 23:26N 05°24' E 100°21'0 0.0
2017-Nov-11 22:56N 05°24' E 100°21'0 0.2
2017-Nov-11 22:08N 05°24' E 100°21'0 0.4
2017-Nov-11 21:56N 05°24' E 100°21'0 0.1
2017-Nov-11 21:20N 05°24' E 100°21'0 0.0
2017-Nov-11 20:50N 05°24' E 100°21'0 0.0
2017-Nov-11 19:38N 05°24' E 100°21'0 0.0
2017-Nov-11 19:26N 05°24' E 100°21'0 0.0
2017-Nov-11 18:14N 05°24' E 100°21'0 0.0
2017-Nov-11 17:56N 05°24' E 100°21'0 0.0
2017-Nov-11 17:20N 05°24' E 100°21'0 0.2
2017-Nov-11 16:56N 05°24' E 100°21'0 0.3
2017-Nov-11 16:14N 05°24' E 100°21'0 0.0
2017-Nov-11 15:56N 05°24' E 100°21'0 0.1
2017-Nov-11 15:26N 05°24' E 100°21'0 0.1
2017-Nov-11 14:56N 05°24' E 100°21'0 0.0
2017-Nov-11 14:26N 05°24' E 100°21'0 0.0
2017-Nov-11 13:56N 05°24' E 100°21'0 0.0
2017-Nov-11 13:20N 05°24' E 100°21'0 0.0
2017-Nov-11 12:56N 05°24' E 100°21'0 0.0
2017-Nov-11 12:26N 05°24' E 100°21'0 0.0
2017-Nov-11 11:50N 05°24' E 100°21'0 0.0
2017-Nov-11 11:26N 05°24' E 100°21'0 0.0
2017-Nov-11 10:56N 05°24' E 100°21'0 0.0
2017-Nov-11 10:20N 05°24' E 100°21'0 0.2
2017-Nov-11 09:56N 05°24' E 100°21'0 0.0
2017-Nov-11 09:26N 05°24' E 100°21'0 0.3
2017-Nov-11 08:56N 05°24' E 100°21'0 0.1
2017-Nov-11 08:26N 05°24' E 100°21'0 0.0
2017-Nov-11 07:56N 05°24' E 100°21'0 0.1
2017-Nov-11 07:26N 05°24' E 100°21'0 0.0
2017-Nov-11 06:56N 05°24' E 100°21'0 0.0
2017-Nov-11 06:26N 05°24' E 100°21'0 0.0
2017-Nov-11 05:44N 05°24' E 100°21'0 0.0
2017-Nov-11 05:26N 05°24' E 100°21'0 0.0
2017-Nov-11 04:56N 05°24' E 100°21'0 0.0
2017-Nov-11 04:26N 05°24' E 100°21'0 0.0
2017-Nov-11 03:56N 05°24' E 100°21'0 0.0
2017-Nov-11 03:26N 05°24' E 100°21'0 0.1
2017-Nov-11 02:56N 05°24' E 100°21'0 0.3
2017-Nov-11 02:26N 05°24' E 100°21'0 0.1
2017-Nov-11 01:56N 05°24' E 100°21'0 0.1
2017-Nov-11 01:26N 05°24' E 100°21'0 0.0
2017-Nov-11 00:56N 05°24' E 100°21'0 0.0
2017-Nov-11 00:26N 05°24' E 100°21'0 0.1
2017-Nov-10 23:56N 05°24' E 100°21'0 0.0
2017-Nov-10 23:26N 05°24' E 100°21'0 0.0
2017-Nov-10 22:56N 05°24' E 100°21'0 0.0
2017-Nov-10 22:20N 05°24' E 100°21'0 0.0
2017-Nov-10 21:56N 05°24' E 100°21'0 0.0
2017-Nov-10 21:26N 05°24' E 100°21'0 0.1
2017-Nov-10 20:56N 05°24' E 100°21'0 0.0
2017-Nov-10 20:26N 05°24' E 100°21'0 0.3
2017-Nov-10 19:56N 05°24' E 100°21'0 0.1
2017-Nov-10 19:26N 05°24' E 100°21'0 0.0
2017-Nov-10 18:56N 05°24' E 100°21'0 0.0
2017-Nov-10 18:20N 05°24' E 100°21'0 0.0
2017-Nov-10 17:56N 05°24' E 100°21'0 0.0
2017-Nov-10 17:26N 05°24' E 100°21'0 0.0
2017-Nov-10 16:50N 05°24' E 100°21'0 0.2
2017-Nov-10 16:02N 05°24' E 100°21'0 0.3
2017-Nov-10 16:00N 05°24' E 100°21'1 2.4
2017-Nov-10 15:30N 05°23' E 100°22'1 1.6
2017-Nov-10 14:59N 05°22' E 100°22'0 0.0
2017-Nov-10 14:29N 05°22' E 100°22'0 0.0
2017-Nov-10 13:59N 05°22' E 100°22'0 0.0
2017-Nov-10 13:17N 05°22' E 100°22'0 0.0
2017-Nov-10 12:59N 05°22' E 100°22'0 0.0
2017-Nov-10 12:29N 05°22' E 100°22'0 0.0
2017-Nov-10 11:59N 05°22' E 100°22'0 0.0
2017-Nov-10 11:29N 05°22' E 100°22'0 0.0
2017-Nov-10 10:59N 05°22' E 100°22'0 0.0
2017-Nov-10 10:23N 05°22' E 100°22'0 0.0
2017-Nov-10 09:59N 05°22' E 100°22'0 0.0
2017-Nov-10 09:29N 05°22' E 100°22'0 0.0
2017-Nov-10 08:59N 05°22' E 100°22'0 0.0
2017-Nov-10 08:29N 05°22' E 100°22'0 0.0
2017-Nov-10 07:59N 05°22' E 100°22'0 0.0
2017-Nov-10 07:29N 05°22' E 100°22'0 0.0
2017-Nov-10 06:59N 05°22' E 100°22'0 0.0
2017-Nov-10 06:29N 05°22' E 100°22'0 0.0
2017-Nov-10 05:59N 05°22' E 100°22'0 0.0
2017-Nov-10 05:29N 05°22' E 100°22'0 0.0
2017-Nov-10 04:47N 05°22' E 100°22'0 0.0
2017-Nov-10 04:29N 05°22' E 100°22'0 0.0
2017-Nov-10 03:59N 05°22' E 100°22'0 0.0
2017-Nov-10 03:29N 05°22' E 100°22'0 0.0
2017-Nov-10 02:59N 05°22' E 100°22'0 0.0
2017-Nov-10 02:29N 05°22' E 100°22'0 0.0
2017-Nov-10 01:59N 05°22' E 100°22'0 0.0
2017-Nov-10 01:29N 05°22' E 100°22'0 0.0
2017-Nov-10 00:59N 05°22' E 100°22'0 0.0
2017-Nov-10 00:29N 05°22' E 100°22'  
Track history (hours):
 
Tides and Currents Weather Stations Pressure Air Temp Water Temp Dewpoint Dewpoint Depression Visibility Wind Speed Wind Dir Waves Ship Positions

Sheffield

Last reported at 2017-Nov-20 00:22 UTC. Time now 2017-Nov-24 07:30 UTC.
Position N 01°17' E 103°57'.

Length 188 m; draft 8.9 m.

Type: Cargo ship. MMSI: 636017691.

Date/timePositionNaut miles runAvg speedWind from/ knotsBaromVisibWave heightAir tempDewpointWater temp
2017-Nov-20 00:22N 01°17' E 103°57'0 0.2
2017-Nov-19 23:52N 01°17' E 103°57'0 0.2
2017-Nov-19 23:10N 01°17' E 103°57'0 0.3
2017-Nov-19 22:58N 01°17' E 103°57'0 0.0
2017-Nov-19 22:30N 01°17' E 103°57'1 3.0
2017-Nov-19 22:00N 01°16' E 103°56'1 2.1
2017-Nov-19 21:30N 01°15' E 103°57'2 3.1
2017-Nov-19 21:00N 01°14' E 103°56'4 7.4
2017-Nov-19 20:30N 01°12' E 103°53'4 9.1
2017-Nov-19 20:01N 01°10' E 103°49'4 8.7
2017-Nov-19 19:30N 01°07' E 103°45'5 9.7
2017-Nov-19 19:00N 01°04' E 103°42'4 8.3
2017-Nov-19 18:30N 01°03' E 103°38'510.1
2017-Nov-19 18:00N 01°06' E 103°34'611.2
2017-Nov-19 17:30N 01°09' E 103°29'1114.8
2017-Nov-19 16:44N 01°16' E 103°20'31412.5
2017-Nov-18 15:36N 05°19' E 100°01'213.8
2017-Nov-18 15:26N 05°21' E 100°01'19 9.1
2017-Nov-18 13:23N 05°34' E 100°16'4 9.8
2017-Nov-18 12:59N 05°31' E 100°19'4 8.5
2017-Nov-18 12:30N 05°28' E 100°21'4 8.4
2017-Nov-18 12:00N 05°23' E 100°21'0 0.3
2017-Nov-18 11:29N 05°23' E 100°21'0 0.0
2017-Nov-18 10:59N 05°23' E 100°21'0 0.0
2017-Nov-18 10:29N 05°23' E 100°21'0 0.0
2017-Nov-18 09:52N 05°23' E 100°21'0 0.2
2017-Nov-18 09:23N 05°23' E 100°21'0 0.2
2017-Nov-18 08:53N 05°23' E 100°21'0 0.1
2017-Nov-18 08:17N 05°23' E 100°21'0 0.0
2017-Nov-18 07:59N 05°23' E 100°21'0 0.0
2017-Nov-18 07:29N 05°23' E 100°21'0 0.0
2017-Nov-18 06:59N 05°23' E 100°21'0 0.0
2017-Nov-18 06:28N 05°23' E 100°21'0 0.0
2017-Nov-18 05:59N 05°23' E 100°21'0 0.0
2017-Nov-18 05:29N 05°23' E 100°21'0 0.0
2017-Nov-18 04:58N 05°23' E 100°21'0 0.0
2017-Nov-18 04:29N 05°23' E 100°21'0 0.0
2017-Nov-18 03:58N 05°23' E 100°21'0 0.0
2017-Nov-18 03:28N 05°23' E 100°21'0 0.0
2017-Nov-18 02:58N 05°23' E 100°21'0 0.0
2017-Nov-18 02:28N 05°23' E 100°21'0 0.2
2017-Nov-18 01:58N 05°23' E 100°21'0 0.2
2017-Nov-18 01:28N 05°23' E 100°21'0 0.1
2017-Nov-18 00:58N 05°23' E 100°21'0 0.0
2017-Nov-18 00:28N 05°23' E 100°21'0 0.0
2017-Nov-17 23:58N 05°23' E 100°21'0 0.0
2017-Nov-17 23:28N 05°23' E 100°21'0 0.0
2017-Nov-17 22:58N 05°23' E 100°21'0 0.0
2017-Nov-17 22:28N 05°23' E 100°21'0 0.0
2017-Nov-17 21:58N 05°23' E 100°21'0 0.0
2017-Nov-17 21:28N 05°23' E 100°21'0 0.1
2017-Nov-17 20:58N 05°23' E 100°21'0 0.3
2017-Nov-17 20:28N 05°23' E 100°21'0 0.1
2017-Nov-17 19:58N 05°23' E 100°21'0 0.0
2017-Nov-17 19:22N 05°23' E 100°21'0 0.0
2017-Nov-17 18:58N 05°23' E 100°21'0 0.0
2017-Nov-17 18:28N 05°23' E 100°21'0 0.0
2017-Nov-17 17:58N 05°23' E 100°21'0 0.0
2017-Nov-17 17:28N 05°23' E 100°21'0 0.0
2017-Nov-17 16:58N 05°23' E 100°21'0 0.0
2017-Nov-17 16:22N 05°23' E 100°21'0 0.0
2017-Nov-17 15:46N 05°23' E 100°21'0 0.0
2017-Nov-17 15:28N 05°23' E 100°21'0 0.0
2017-Nov-17 14:58N 05°23' E 100°21'0 0.0
2017-Nov-17 14:28N 05°23' E 100°21'0 0.1
2017-Nov-17 13:58N 05°23' E 100°21'0 0.2
2017-Nov-17 13:28N 05°23' E 100°21'0 0.2
2017-Nov-17 12:58N 05°23' E 100°21'0 0.0
2017-Nov-17 12:28N 05°23' E 100°21'0 0.0
2017-Nov-17 11:58N 05°23' E 100°21'0 0.0
2017-Nov-17 11:28N 05°23' E 100°21'0 0.0
2017-Nov-17 10:58N 05°23' E 100°21'0 0.1
2017-Nov-17 10:22N 05°23' E 100°21'0 0.0
2017-Nov-17 09:58N 05°23' E 100°21'0 0.0
2017-Nov-17 09:28N 05°23' E 100°21'0 0.0
2017-Nov-17 08:58N 05°23' E 100°21'0 0.1
2017-Nov-17 08:28N 05°23' E 100°21'0 0.1
2017-Nov-17 07:52N 05°23' E 100°21'0 0.4
2017-Nov-17 07:28N 05°23' E 100°21'0 0.2
2017-Nov-17 06:58N 05°23' E 100°21'0 0.1
2017-Nov-17 06:28N 05°23' E 100°21'0 0.0
2017-Nov-17 05:58N 05°23' E 100°21'0 0.0
2017-Nov-17 05:22N 05°23' E 100°21'0 0.0
2017-Nov-17 04:58N 05°23' E 100°21'0 0.0
2017-Nov-17 04:28N 05°23' E 100°21'0 0.0
2017-Nov-17 03:58N 05°23' E 100°21'0 0.0
2017-Nov-17 03:28N 05°23' E 100°21'0 0.0
2017-Nov-17 02:58N 05°23' E 100°21'0 0.0
2017-Nov-17 02:28N 05°23' E 100°21'0 0.1
2017-Nov-17 01:58N 05°23' E 100°21'0 0.2
2017-Nov-17 01:28N 05°23' E 100°21'0 0.1
2017-Nov-17 00:58N 05°23' E 100°21'0 0.0
2017-Nov-17 00:16N 05°23' E 100°21'0 0.0
2017-Nov-16 23:52N 05°23' E 100°21'0 0.0
2017-Nov-16 23:28N 05°23' E 100°21'0 0.0
2017-Nov-16 22:52N 05°23' E 100°21'0 0.0
2017-Nov-16 22:28N 05°23' E 100°21'0 0.0
2017-Nov-16 21:52N 05°23' E 100°21'0 0.0
2017-Nov-16 21:28N 05°23' E 100°21'0 0.1
2017-Nov-16 20:58N 05°23' E 100°21'0 0.0
2017-Nov-16 20:28N 05°23' E 100°21'0 0.3
2017-Nov-16 19:58N 05°23' E 100°21'0 0.2
2017-Nov-16 19:28N 05°23' E 100°21'0 0.0
2017-Nov-16 18:58N 05°23' E 100°21'0 0.1
2017-Nov-16 18:28N 05°23' E 100°21'0 0.0
2017-Nov-16 17:58N 05°23' E 100°21'0 0.1
2017-Nov-16 17:28N 05°23' E 100°21'0 0.0
2017-Nov-16 16:58N 05°23' E 100°21'0 0.0
2017-Nov-16 16:28N 05°23' E 100°21'0 0.0
2017-Nov-16 15:52N 05°23' E 100°21'0 0.0
2017-Nov-16 15:28N 05°23' E 100°21'0 0.0
2017-Nov-16 14:58N 05°23' E 100°21'0 0.0
2017-Nov-16 14:22N 05°23' E 100°21'0 0.0
2017-Nov-16 13:58N 05°23' E 100°21'0 0.1
2017-Nov-16 13:28N 05°23' E 100°21'0 0.2
2017-Nov-16 12:58N 05°23' E 100°21'0 0.1
2017-Nov-16 12:28N 05°23' E 100°21'0 0.1
2017-Nov-16 11:58N 05°23' E 100°21'0 0.0
2017-Nov-16 11:22N 05°23' E 100°21'0 0.0
2017-Nov-16 10:58N 05°23' E 100°21'0 0.0
2017-Nov-16 10:28N 05°23' E 100°21'0 0.0
2017-Nov-16 09:58N 05°23' E 100°21'0 0.0
2017-Nov-16 09:28N 05°23' E 100°21'0 0.0
2017-Nov-16 08:58N 05°23' E 100°21'0 0.0
2017-Nov-16 08:28N 05°23' E 100°21'0 0.3
2017-Nov-16 07:58N 05°23' E 100°21'0 0.2
2017-Nov-16 07:28N 05°23' E 100°21'0 0.0
2017-Nov-16 06:58N 05°23' E 100°21'0 0.1
2017-Nov-16 06:28N 05°23' E 100°21'0 0.0
2017-Nov-16 05:58N 05°23' E 100°21'0 0.0
2017-Nov-16 05:28N 05°23' E 100°21'0 0.0
2017-Nov-16 04:58N 05°23' E 100°21'0 0.0
2017-Nov-16 04:28N 05°23' E 100°21'0 0.1
2017-Nov-16 03:58N 05°23' E 100°21'0 0.0
2017-Nov-16 03:28N 05°23' E 100°21'0 0.0
2017-Nov-16 02:58N 05°23' E 100°21'0 0.0
2017-Nov-16 01:58N 05°23' E 100°21'0 0.0
2017-Nov-16 01:28N 05°23' E 100°21'0 0.2
2017-Nov-16 00:58N 05°23' E 100°21'0 0.1
2017-Nov-16 00:22N 05°23' E 100°21'0 0.2
2017-Nov-15 23:58N 05°23' E 100°21'0 0.0
2017-Nov-15 23:28N 05°23' E 100°21'0 0.0
2017-Nov-15 22:58N 05°23' E 100°21'0 0.0
2017-Nov-15 22:28N 05°23' E 100°21'0 0.0
2017-Nov-15 21:58N 05°23' E 100°21'0 0.1
2017-Nov-15 21:28N 05°23' E 100°21'0 0.0
2017-Nov-15 20:58N 05°23' E 100°21'0 0.0
2017-Nov-15 20:28N 05°23' E 100°21'0 0.1
2017-Nov-15 19:58N 05°23' E 100°21'0 0.2
2017-Nov-15 19:28N 05°23' E 100°21'0 0.2
2017-Nov-15 18:58N 05°23' E 100°21'0 0.1
2017-Nov-15 18:28N 05°23' E 100°21'0 0.0
2017-Nov-15 17:58N 05°23' E 100°21'0 0.0
2017-Nov-15 17:28N 05°23' E 100°21'0 0.0
2017-Nov-15 16:52N 05°23' E 100°21'0 0.0
2017-Nov-15 16:28N 05°23' E 100°21'0 0.1
2017-Nov-15 15:52N 05°23' E 100°21'0 0.0
2017-Nov-15 15:28N 05°23' E 100°21'0 0.1
2017-Nov-15 14:58N 05°23' E 100°21'0 0.0
2017-Nov-15 14:28N 05°23' E 100°21'0 0.0
2017-Nov-15 13:58N 05°23' E 100°21'0 0.0
2017-Nov-15 13:28N 05°23' E 100°21'0 0.1
2017-Nov-15 12:58N 05°23' E 100°21'0 0.1
2017-Nov-15 12:16N 05°23' E 100°21'0 0.3
2017-Nov-15 11:58N 05°23' E 100°21'0 0.0
2017-Nov-15 11:28N 05°23' E 100°21'0 0.0
2017-Nov-15 10:58N 05°23' E 100°21'0 0.0
2017-Nov-15 10:28N 05°23' E 100°21'0 0.1
2017-Nov-15 09:58N 05°23' E 100°21'0 0.0
2017-Nov-15 09:10N 05°23' E 100°21'0 0.0
2017-Nov-15 08:58N 05°23' E 100°21'0 0.0
2017-Nov-15 08:28N 05°23' E 100°21'0 0.0
2017-Nov-15 07:58N 05°23' E 100°21'0 0.4
2017-Nov-15 07:28N 05°23' E 100°21'0 0.0
2017-Nov-15 06:58N 05°23' E 100°21'0 0.1
2017-Nov-15 06:22N 05°23' E 100°21'0 0.1
2017-Nov-15 05:52N 05°23' E 100°21'0 0.1
2017-Nov-15 05:28N 05°23' E 100°21'0 0.0
2017-Nov-15 04:58N 05°23' E 100°21'0 0.0
2017-Nov-15 04:28N 05°23' E 100°21'0 0.0
2017-Nov-15 03:58N 05°23' E 100°21'0 0.0
2017-Nov-15 03:28N 05°23' E 100°21'0 0.0
2017-Nov-15 02:58N 05°23' E 100°21'0 0.1
2017-Nov-15 02:22N 05°23' E 100°21'0 0.0
2017-Nov-15 01:58N 05°23' E 100°21'0 0.0
2017-Nov-15 01:28N 05°23' E 100°21'0 0.0
2017-Nov-15 00:58N 05°23' E 100°21'0 0.1
2017-Nov-15 00:28N 05°23' E 100°21'0 0.2
2017-Nov-14 23:58N 05°23' E 100°21'0 0.1
2017-Nov-14 23:28N 05°23' E 100°21'0 0.0
2017-Nov-14 22:58N 05°23' E 100°21'0 0.0
2017-Nov-14 22:28N 05°23' E 100°21'0 0.0
2017-Nov-14 21:58N 05°23' E 100°21'0 0.0
2017-Nov-14 21:28N 05°23' E 100°21'0 0.1
2017-Nov-14 20:58N 05°23' E 100°21'0 0.1
2017-Nov-14 20:28N 05°23' E 100°21'0 0.0
2017-Nov-14 19:58N 05°23' E 100°21'0 0.2
2017-Nov-14 19:22N 05°23' E 100°21'0 0.2
2017-Nov-14 18:58N 05°23' E 100°21'0 0.1
2017-Nov-14 18:28N 05°23' E 100°21'0 0.0
2017-Nov-14 17:58N 05°23' E 100°21'0 0.0
2017-Nov-14 17:28N 05°23' E 100°21'0 0.0
2017-Nov-14 16:58N 05°23' E 100°21'0 0.1
2017-Nov-14 16:28N 05°23' E 100°21'0 0.1
2017-Nov-14 15:58N 05°23' E 100°21'0 0.0
2017-Nov-14 15:28N 05°23' E 100°21'0 0.0
2017-Nov-14 14:58N 05°23' E 100°21'0 0.0
2017-Nov-14 14:28N 05°23' E 100°21'0 0.0
2017-Nov-14 13:58N 05°23' E 100°21'0 0.0
2017-Nov-14 13:28N 05°23' E 100°21'0 0.0
2017-Nov-14 12:58N 05°23' E 100°21'0 0.2
2017-Nov-14 12:28N 05°23' E 100°21'0 0.1
2017-Nov-14 11:58N 05°23' E 100°21'0 0.1
2017-Nov-14 11:28N 05°23' E 100°21'0 0.0
2017-Nov-14 10:58N 05°23' E 100°21'0 0.0
2017-Nov-14 10:22N 05°23' E 100°21'0 0.0
2017-Nov-14 09:58N 05°23' E 100°21'0 0.0
2017-Nov-14 09:28N 05°23' E 100°21'0 0.0
2017-Nov-14 08:58N 05°23' E 100°21'0 0.0
2017-Nov-14 08:28N 05°23' E 100°21'0 0.0
2017-Nov-14 07:58N 05°23' E 100°21'0 0.0
2017-Nov-14 07:28N 05°23' E 100°21'0 0.0
2017-Nov-14 06:58N 05°23' E 100°21'0 0.0
2017-Nov-14 06:28N 05°23' E 100°21'0 0.1
2017-Nov-14 05:58N 05°23' E 100°21'0 0.3
2017-Nov-14 05:22N 05°23' E 100°21'0 0.0
2017-Nov-14 04:58N 05°23' E 100°21'0 0.0
2017-Nov-14 04:28N 05°23' E 100°21'0 0.0
2017-Nov-14 03:58N 05°23' E 100°21'0 0.1
2017-Nov-14 03:28N 05°23' E 100°21'0 0.0
2017-Nov-14 02:58N 05°23' E 100°21'0 0.1
2017-Nov-14 02:28N 05°23' E 100°21'0 0.1
2017-Nov-14 01:58N 05°23' E 100°21'0 0.0
2017-Nov-14 01:28N 05°23' E 100°21'0 0.0
2017-Nov-14 00:58N 05°23' E 100°21'0 0.1
2017-Nov-14 00:22N 05°23' E 100°21'0 0.3
2017-Nov-13 23:58N 05°23' E 100°21'0 0.2
2017-Nov-13 23:28N 05°23' E 100°21'0 0.0
2017-Nov-13 22:58N 05°23' E 100°21'0 0.0
2017-Nov-13 22:28N 05°23' E 100°21'0 0.0
2017-Nov-13 21:58N 05°23' E 100°21'0 0.0
2017-Nov-13 01:56N 05°24' E 100°21'0 0.0
2017-Nov-13 01:26N 05°24' E 100°21'0 0.0
2017-Nov-13 00:56N 05°24' E 100°21'0 0.1
2017-Nov-13 00:26N 05°24' E 100°21'0 0.2
2017-Nov-12 23:50N 05°24' E 100°21'0 0.0
2017-Nov-12 23:26N 05°24' E 100°21'0 0.1
2017-Nov-12 22:56N 05°24' E 100°21'0 0.0
2017-Nov-12 22:26N 05°24' E 100°21'0 0.0
2017-Nov-12 21:56N 05°24' E 100°21'0 0.1
2017-Nov-12 21:26N 05°24' E 100°21'0 0.0
2017-Nov-12 20:56N 05°24' E 100°21'0 0.0
2017-Nov-12 20:26N 05°24' E 100°21'0 0.1
2017-Nov-12 19:56N 05°24' E 100°21'0 0.0
2017-Nov-12 19:26N 05°24' E 100°21'0 0.1
2017-Nov-12 18:56N 05°24' E 100°21'0 0.1
2017-Nov-12 18:26N 05°24' E 100°21'0 0.1
2017-Nov-12 17:56N 05°24' E 100°21'0 0.1
2017-Nov-12 17:26N 05°24' E 100°21'0 0.2
2017-Nov-12 16:56N 05°24' E 100°21'0 0.2
2017-Nov-12 16:26N 05°24' E 100°21'0 0.0
2017-Nov-12 15:56N 05°24' E 100°21'0 0.0
2017-Nov-12 15:20N 05°24' E 100°21'0 0.0
2017-Nov-12 14:56N 05°24' E 100°21'0 0.0
2017-Nov-12 14:26N 05°24' E 100°21'0 0.0
2017-Nov-12 13:56N 05°24' E 100°21'0 0.0
2017-Nov-12 13:26N 05°24' E 100°21'0 0.0
2017-Nov-12 12:56N 05°24' E 100°21'0 0.0
2017-Nov-12 12:26N 05°24' E 100°21'0 0.0
2017-Nov-12 11:56N 05°24' E 100°21'0 0.0
2017-Nov-12 11:20N 05°24' E 100°21'0 0.0
2017-Nov-12 10:50N 05°24' E 100°21'0 0.1
2017-Nov-12 10:20N 05°24' E 100°21'0 0.1
2017-Nov-12 09:56N 05°24' E 100°21'0 0.3
2017-Nov-12 09:26N 05°24' E 100°21'0 0.1
2017-Nov-12 08:50N 05°24' E 100°21'0 0.1
2017-Nov-12 08:14N 05°24' E 100°21'0 0.0
2017-Nov-12 07:56N 05°24' E 100°21'0 0.0
2017-Nov-12 07:26N 05°24' E 100°21'0 0.0
2017-Nov-12 06:56N 05°24' E 100°21'0 0.0
2017-Nov-12 06:26N 05°24' E 100°21'0 0.0
2017-Nov-12 05:56N 05°24' E 100°21'0 0.3
2017-Nov-12 05:20N 05°24' E 100°21'0 0.2
2017-Nov-12 04:56N 05°24' E 100°21'0 0.1
2017-Nov-12 04:26N 05°24' E 100°21'0 0.0
2017-Nov-12 03:56N 05°24' E 100°21'0 0.0
2017-Nov-12 03:26N 05°24' E 100°21'0 0.0
2017-Nov-12 02:38N 05°24' E 100°21'0 0.0
2017-Nov-12 02:26N 05°24' E 100°21'0 0.0
2017-Nov-12 01:56N 05°24' E 100°21'0 0.0
2017-Nov-12 01:20N 05°24' E 100°21'0 0.0
2017-Nov-12 00:56N 05°24' E 100°21'0 0.0
2017-Nov-12 00:26N 05°24' E 100°21'0 0.0
2017-Nov-11 23:56N 05°24' E 100°21'0 0.0
2017-Nov-11 23:26N 05°24' E 100°21'0 0.0
2017-Nov-11 22:56N 05°24' E 100°21'0 0.2
2017-Nov-11 22:08N 05°24' E 100°21'0 0.4
2017-Nov-11 21:56N 05°24' E 100°21'0 0.1
2017-Nov-11 21:20N 05°24' E 100°21'0 0.0
2017-Nov-11 20:50N 05°24' E 100°21'0 0.0
2017-Nov-11 19:38N 05°24' E 100°21'0 0.0
2017-Nov-11 19:26N 05°24' E 100°21'0 0.0
2017-Nov-11 18:14N 05°24' E 100°21'0 0.0
2017-Nov-11 17:56N 05°24' E 100°21'0 0.0
2017-Nov-11 17:20N 05°24' E 100°21'0 0.2
2017-Nov-11 16:56N 05°24' E 100°21'0 0.3
2017-Nov-11 16:14N 05°24' E 100°21'0 0.0
2017-Nov-11 15:56N 05°24' E 100°21'0 0.1
2017-Nov-11 15:26N 05°24' E 100°21'0 0.1
2017-Nov-11 14:56N 05°24' E 100°21'0 0.0
2017-Nov-11 14:26N 05°24' E 100°21'0 0.0
2017-Nov-11 13:56N 05°24' E 100°21'0 0.0
2017-Nov-11 13:20N 05°24' E 100°21'0 0.0
2017-Nov-11 12:56N 05°24' E 100°21'0 0.0
2017-Nov-11 12:26N 05°24' E 100°21'0 0.0
2017-Nov-11 11:50N 05°24' E 100°21'0 0.0
2017-Nov-11 11:26N 05°24' E 100°21'0 0.0
2017-Nov-11 10:56N 05°24' E 100°21'0 0.0
2017-Nov-11 10:20N 05°24' E 100°21'0 0.2
2017-Nov-11 09:56N 05°24' E 100°21'0 0.0
2017-Nov-11 09:26N 05°24' E 100°21'0 0.3
2017-Nov-11 08:56N 05°24' E 100°21'0 0.1
2017-Nov-11 08:26N 05°24' E 100°21'0 0.0
2017-Nov-11 07:56N 05°24' E 100°21'0 0.1
2017-Nov-11 07:26N 05°24' E 100°21'0 0.0
2017-Nov-11 06:56N 05°24' E 100°21'0 0.0
2017-Nov-11 06:26N 05°24' E 100°21'0 0.0
2017-Nov-11 05:44N 05°24' E 100°21'0 0.0
2017-Nov-11 05:26N 05°24' E 100°21'0 0.0
2017-Nov-11 04:56N 05°24' E 100°21'0 0.0
2017-Nov-11 04:26N 05°24' E 100°21'0 0.0
2017-Nov-11 03:56N 05°24' E 100°21'0 0.0
2017-Nov-11 03:26N 05°24' E 100°21'0 0.1
2017-Nov-11 02:56N 05°24' E 100°21'0 0.3
2017-Nov-11 02:26N 05°24' E 100°21'0 0.1
2017-Nov-11 01:56N 05°24' E 100°21'0 0.1
2017-Nov-11 01:26N 05°24' E 100°21'0 0.0
2017-Nov-11 00:56N 05°24' E 100°21'0 0.0
2017-Nov-11 00:26N 05°24' E 100°21'0 0.1
2017-Nov-10 23:56N 05°24' E 100°21'0 0.0
2017-Nov-10 23:26N 05°24' E 100°21'0 0.0
2017-Nov-10 22:56N 05°24' E 100°21'0 0.0
2017-Nov-10 22:20N 05°24' E 100°21'0 0.0
2017-Nov-10 21:56N 05°24' E 100°21'0 0.0
2017-Nov-10 21:26N 05°24' E 100°21'0 0.1
2017-Nov-10 20:56N 05°24' E 100°21'0 0.0
2017-Nov-10 20:26N 05°24' E 100°21'0 0.3
2017-Nov-10 19:56N 05°24' E 100°21'0 0.1
2017-Nov-10 19:26N 05°24' E 100°21'0 0.0
2017-Nov-10 18:56N 05°24' E 100°21'0 0.0
2017-Nov-10 18:20N 05°24' E 100°21'0 0.0
2017-Nov-10 17:56N 05°24' E 100°21'0 0.0
2017-Nov-10 17:26N 05°24' E 100°21'0 0.0
2017-Nov-10 16:50N 05°24' E 100°21'0 0.2
2017-Nov-10 16:02N 05°24' E 100°21'0 0.3
2017-Nov-10 16:00N 05°24' E 100°21'1 2.4
2017-Nov-10 15:30N 05°23' E 100°22'1 1.6
2017-Nov-10 14:59N 05°22' E 100°22'0 0.0
2017-Nov-10 14:29N 05°22' E 100°22'0 0.0
2017-Nov-10 13:59N 05°22' E 100°22'0 0.0
2017-Nov-10 13:17N 05°22' E 100°22'0 0.0
2017-Nov-10 12:59N 05°22' E 100°22'0 0.0
2017-Nov-10 12:29N 05°22' E 100°22'0 0.0
2017-Nov-10 11:59N 05°22' E 100°22'0 0.0
2017-Nov-10 11:29N 05°22' E 100°22'0 0.0
2017-Nov-10 10:59N 05°22' E 100°22'0 0.0
2017-Nov-10 10:23N 05°22' E 100°22'0 0.0
2017-Nov-10 09:59N 05°22' E 100°22'0 0.0
2017-Nov-10 09:29N 05°22' E 100°22'0 0.0
2017-Nov-10 08:59N 05°22' E 100°22'0 0.0
2017-Nov-10 08:29N 05°22' E 100°22'0 0.0
2017-Nov-10 07:59N 05°22' E 100°22'0 0.0
2017-Nov-10 07:29N 05°22' E 100°22'0 0.0
2017-Nov-10 06:59N 05°22' E 100°22'0 0.0
2017-Nov-10 06:29N 05°22' E 100°22'0 0.0
2017-Nov-10 05:59N 05°22' E 100°22'0 0.0
2017-Nov-10 05:29N 05°22' E 100°22'0 0.0
2017-Nov-10 04:47N 05°22' E 100°22'0 0.0
2017-Nov-10 04:29N 05°22' E 100°22'0 0.0
2017-Nov-10 03:59N 05°22' E 100°22'0 0.0
2017-Nov-10 03:29N 05°22' E 100°22'0 0.0
2017-Nov-10 02:59N 05°22' E 100°22'0 0.0
2017-Nov-10 02:29N 05°22' E 100°22'0 0.0
2017-Nov-10 01:59N 05°22' E 100°22'0 0.0
2017-Nov-10 01:29N 05°22' E 100°22'0 0.0
2017-Nov-10 00:59N 05°22' E 100°22'0 0.0
2017-Nov-10 00:29N 05°22' E 100°22'  

Dump ship's entire track history